Date,TemperatureHighF,TemperatureAvgF,TemperatureLowF,DewpointHighF,DewpointAvgF,DewpointLowF,HumidityHigh,HumidityAvg,HumidityLow,PressureMaxIn,PressureMinIn,WindSpeedMaxMPH,WindSpeedAvgMPH,GustSpeedMaxMPH,PrecipitationSumIn
2013-3-1,66.0,60.3,57.0,53.0,49.9,46.0,79,69,57,0.00,40.00,10,7,34,0.00
2013-3-2,69.0,61.5,57.0,52.0,49.5,47.0,81,65,49,0.00,40.00,10,5,29,0.00
2013-3-3,70.0,61.3,56.0,52.0,48.2,44.0,75,63,51,0.00,40.00,9,6,27,0.00
2013-3-4,70.0,61.4,56.0,53.0,49.3,46.0,75,65,49,0.00,40.00,9,5,30,0.00
2013-3-5,73.0,61.6,54.0,54.0,49.4,45.0,77,65,44,0.00,40.00,8,5,30,0.00
2013-3-6,76.0,63.3,57.0,56.0,53.2,49.0,87,71,48,0.00,40.00,6,4,20,0.00
2013-3-7,79.0,64.5,57.0,57.0,53.0,49.0,89,68,41,0.00,40.00,6,3,17,0.00
2013-3-8,77.0,61.5,53.0,62.0,54.9,51.0,96,82,41,0.00,40.00,5,3,15,0.08
2013-3-9,64.0,61.0,59.0,64.0,60.8,56.0,100,99,92,0.00,40.00,7,6,27,0.21
2013-3-10,62.0,59.3,56.0,62.0,59.1,56.0,100,99,93,0.00,40.00,8,4,22,4.57
2013-3-11,74.0,63.2,55.0,64.0,59.2,55.0,100,88,66,0.00,40.00,4,2,13,0.76
2013-3-12,70.0,62.3,57.0,63.0,57.3,50.0,98,84,67,0.00,40.00,6,3,15,0.07
2013-3-13,73.0,62.1,54.0,59.0,53.2,45.0,96,74,53,0.00,40.00,6,3,13,0.07
2013-3-14,73.0,62.2,56.0,61.0,57.6,53.0,98,86,59,0.00,40.00,4,2,12,0.00
2013-3-15,70.0,62.0,57.0,60.0,57.1,54.0,100,85,65,0.00,40.00,4,2,14,0.00
2013-3-16,64.0,58.5,55.0,57.0,53.2,49.0,99,83,63,0.00,40.00,11,8,28,0.00
2013-3-17,71.0,59.1,54.0,55.0,50.9,42.0,91,75,50,0.00,40.00,8,5,18,0.06
2013-3-18,73.0,60.3,51.0,55.0,50.9,45.0,97,73,47,0.00,40.00,5,3,14,0.02
2013-3-19,75.0,62.6,52.0,58.0,51.1,45.0,93,68,42,0.00,40.00,6,3,20,0.00
2013-3-20,78.0,64.8,56.0,61.0,54.3,49.0,85,70,45,0.00,40.00,8,4,16,0.00
2013-3-21,80.0,68.2,58.0,64.0,59.1,52.0,93,74,57,0.00,40.00,5,3,14,0.00
2013-3-22,68.0,63.7,61.0,65.0,63.2,61.0,100,98,87,0.00,40.00,5,3,16,0.21
2013-3-23,68.0,62.6,60.0,63.0,61.0,59.0,100,95,81,0.00,40.00,8,4,21,0.81
2013-3-24,67.0,63.0,60.0,65.0,60.5,54.0,100,92,79,0.00,40.00,7,3,20,0.01
2013-3-25,75.0,65.3,59.0,65.0,60.3,56.0,100,85,67,0.00,40.00,6,2,14,0.03
2013-3-26,75.0,64.8,57.0,65.0,59.9,56.0,98,85,61,0.00,40.00,3,2,12,0.03
2013-3-27,72.0,63.4,58.0,64.0,59.0,55.0,98,86,69,0.00,40.00,4,2,9,0.14
2013-3-28,70.0,65.1,60.0,60.0,57.7,54.0,86,77,66,0.00,40.00,10,7,25,1.42
2013-3-29,70.0,63.3,59.0,60.0,57.6,54.0,95,82,70,0.00,40.00,9,4,28,0.00
2013-3-30,75.0,62.2,58.0,64.0,56.0,-99.9,99,85,63,0.00,40.00,11,4,25,0.02
2013-3-31,64.0,58.2,54.0,56.0,50.9,46.0,98,78,55,0.00,40.00,12,9,29,0.03